Time;durP1;ratioP1;P1;durP2;ratioP2;P2;SDS_P1;SDS_P2;PMS_P1;PMS_P2;Temp;Humidity;BMP_temperature;BMP_pressure;BME280_temperature;BME280_humidity;BME280_pressure;Samples;Min_cycle;Max_cycle;Signal;HPM_P1;HPM_P2
2021/09/21 00:01:04;;;;;;;11.77;8.70;;;8.10;99.90;;;;;;5046452;28;20163;-80
2021/09/21 00:03:31;;;;;;;11.63;8.63;;;8.10;99.90;;;;;;5046706;28;20221;-80
2021/09/21 00:05:57;;;;;;;12.17;8.37;;;8.10;99.90;;;;;;5044934;28;20191;-80
2021/09/21 00:08:23;;;;;;;16.30;9.60;;;8.10;99.90;;;;;;5044484;28;20187;-80
2021/09/21 00:10:48;;;;;;;16.43;8.47;;;8.00;99.90;;;;;;5044447;28;20240;-79
2021/09/21 00:13:14;;;;;;;12.50;8.30;;;8.00;99.90;;;;;;5044888;28;20296;-80
2021/09/21 00:15:40;;;;;;;11.57;8.27;;;8.00;99.90;;;;;;5045984;28;20182;-80
2021/09/21 00:18:06;;;;;;;11.37;7.73;;;7.90;99.90;;;;;;5046017;28;20531;-80
2021/09/21 00:20:31;;;;;;;11.57;7.53;;;7.90;99.90;;;;;;5046469;28;20417;-80
2021/09/21 00:22:57;;;;;;;8.80;7.27;;;7.80;99.90;;;;;;5045459;28;20186;-80
2021/09/21 00:25:23;;;;;;;11.70;8.33;;;7.80;99.90;;;;;;5046569;28;20174;-80
2021/09/21 00:27:48;;;;;;;10.43;8.47;;;7.70;99.90;;;;;;5047158;28;20297;-79
2021/09/21 00:30:16;;;;;;;10.03;7.93;;;7.70;99.90;;;;;;5046666;28;20201;-80
2021/09/21 00:32:44;;;;;;;9.87;7.33;;;7.60;99.90;;;;;;5044804;28;20212;-80
2021/09/21 00:35:10;;;;;;;9.07;7.70;;;7.60;99.90;;;;;;5042652;28;20422;-80
2021/09/21 00:37:38;;;;;;;10.77;7.87;;;7.60;99.90;;;;;;5043869;28;20230;-80
2021/09/21 00:40:05;;;;;;;10.50;7.93;;;7.50;99.90;;;;;;5041515;28;20238;-79
2021/09/21 00:42:32;;;;;;;12.00;8.10;;;7.50;99.90;;;;;;5042764;28;20174;-80
2021/09/21 00:45:01;;;;;;;11.00;8.70;;;7.50;99.90;;;;;;5041523;28;20210;-80
2021/09/21 00:47:28;;;;;;;9.77;7.50;;;7.40;99.90;;;;;;5041016;28;20516;-80
2021/09/21 00:49:54;;;;;;;9.43;7.67;;;7.40;99.90;;;;;;5038431;28;20424;-79
2021/09/21 00:52:21;;;;;;;10.23;7.27;;;7.40;99.90;;;;;;5037537;28;20465;-80
2021/09/21 00:54:47;;;;;;;14.07;7.93;;;7.40;99.90;;;;;;5038507;28;20931;-79
2021/09/21 00:57:13;;;;;;;11.90;8.00;;;7.30;99.90;;;;;;5040539;28;20809;-79
2021/09/21 00:59:39;;;;;;;10.00;7.00;;;7.30;99.90;;;;;;5037295;28;20428;-79
2021/09/21 01:02:05;;;;;;;11.57;7.63;;;7.20;99.90;;;;;;5041323;28;20413;-80
2021/09/21 01:04:31;;;;;;;12.10;7.80;;;7.20;99.90;;;;;;5044335;28;20179;-80
2021/09/21 01:06:57;;;;;;;9.50;7.83;;;7.20;99.90;;;;;;5044666;28;20717;-80
2021/09/21 01:09:24;;;;;;;8.77;7.03;;;7.10;99.90;;;;;;5045323;28;20413;-80
2021/09/21 01:11:52;;;;;;;9.23;6.57;;;7.20;99.90;;;;;;5044981;28;20486;-80
2021/09/21 01:14:18;;;;;;;10.27;6.77;;;7.20;99.90;;;;;;5045091;28;20220;-80
2021/09/21 01:16:45;;;;;;;10.90;8.07;;;7.20;99.90;;;;;;5045208;28;20941;-80
2021/09/21 01:19:13;;;;;;;11.97;7.93;;;7.20;99.90;;;;;;5046166;28;20417;-80
2021/09/21 01:21:40;;;;;;;10.80;7.80;;;7.20;99.90;;;;;;5044323;28;20425;-81
2021/09/21 01:24:07;;;;;;;10.40;7.37;;;7.10;99.90;;;;;;5044912;28;20826;-79
2021/09/21 01:26:33;;;;;;;11.83;7.67;;;7.10;99.90;;;;;;5046468;28;20205;-79
2021/09/21 01:28:58;;;;;;;9.13;6.47;;;7.00;99.90;;;;;;5045984;28;20174;-80
2021/09/21 01:31:24;;;;;;;10.90;8.03;;;7.00;99.90;;;;;;5050560;28;20189;-79
2021/09/21 01:33:52;;;;;;;10.30;7.63;;;7.00;99.90;;;;;;5054379;28;20241;-79
2021/09/21 01:36:20;;;;;;;9.47;7.03;;;6.90;99.90;;;;;;5055191;28;20187;-79
2021/09/21 01:38:46;;;;;;;11.73;7.80;;;6.90;99.90;;;;;;5055653;28;20175;-79
2021/09/21 01:41:13;;;;;;;23.47;8.33;;;6.90;99.90;;;;;;5047822;28;20256;-80
2021/09/21 01:43:42;;;;;;;37.40;7.77;;;6.80;99.90;;;;;;5043764;28;20449;-80
2021/09/21 01:46:10;;;;;;;76.67;16.33;;;6.70;99.90;;;;;;5045299;28;20453;-80
2021/09/21 01:48:35;;;;;;;44.00;7.83;;;6.70;99.90;;;;;;5044605;28;20409;-80
2021/09/21 01:51:04;;;;;;;21.67;7.57;;;6.70;99.90;;;;;;5044399;28;20435;-80
2021/09/21 01:58:58;;;;;;;15.97;7.93;;;6.80;99.90;;;;;;5044917;28;20174;-80
2021/09/21 02:01:26;;;;;;;18.10;9.43;;;6.90;99.90;;;;;;5042559;28;20174;-80
2021/09/21 02:03:57;;;;;;;26.23;9.10;;;7.00;99.90;;;;;;5042720;28;20178;-80
2021/09/21 02:06:32;;;;;;;27.60;7.93;;;7.00;99.90;;;;;;5044625;28;20250;-80
2021/09/21 02:08:58;;;;;;;26.80;8.33;;;7.00;99.90;;;;;;5044358;28;20169;-80
2021/09/21 02:11:24;;;;;;;22.13;9.27;;;7.00;99.90;;;;;;5042788;28;20174;-80
2021/09/21 02:13:55;;;;;;;54.07;8.97;;;7.00;99.90;;;;;;5042392;28;20182;-80
2021/09/21 02:16:21;;;;;;;61.70;8.93;;;7.00;99.90;;;;;;5044483;28;20194;-80
2021/09/21 02:18:47;;;;;;;39.83;8.77;;;6.90;99.90;;;;;;5044989;28;20182;-80
2021/09/21 02:21:12;;;;;;;85.20;9.20;;;6.90;99.90;;;;;;5044103;28;20189;-80
2021/09/21 02:23:38;;;;;;;89.53;8.17;;;6.90;99.90;;;;;;5043478;28;20182;-80
2021/09/21 02:26:03;;;;;;;107.07;12.57;;;6.80;99.90;;;;;;5044356;28;20598;-80
2021/09/21 02:28:29;;;;;;;102.33;9.53;;;6.80;99.90;;;;;;5044392;28;20197;-80
2021/09/21 02:30:55;;;;;;;65.03;8.87;;;6.70;99.90;;;;;;5044249;28;20178;-80
2021/09/21 02:33:20;;;;;;;141.50;13.03;;;6.60;99.90;;;;;;5045357;28;20213;-80
2021/09/21 02:35:46;;;;;;;107.87;8.60;;;6.60;99.90;;;;;;5047752;28;20538;-80
2021/09/21 02:38:12;;;;;;;73.23;8.37;;;6.40;99.90;;;;;;5048000;28;20234;-79
2021/09/21 02:40:37;;;;;;;43.83;8.10;;;6.50;99.90;;;;;;5047637;28;20189;-80
2021/09/21 02:43:03;;;;;;;43.83;7.47;;;6.50;99.90;;;;;;5049067;28;20178;-80
2021/09/21 02:45:29;;;;;;;69.67;8.30;;;6.50;99.90;;;;;;5047677;28;20193;-80
2021/09/21 02:47:54;;;;;;;61.13;7.60;;;6.50;99.90;;;;;;5048405;28;20269;-81
2021/09/21 02:50:20;;;;;;;75.70;11.00;;;6.50;99.90;;;;;;5050338;28;20182;-80
2021/09/21 02:52:46;;;;;;;24.70;6.97;;;6.40;99.90;;;;;;5048810;28;20213;-81
2021/09/21 02:55:11;;;;;;;41.07;8.10;;;6.40;99.90;;;;;;5047043;28;20185;-80
2021/09/21 02:57:37;;;;;;;40.97;7.43;;;6.40;99.90;;;;;;5049332;28;20221;-81
2021/09/21 03:00:09;;;;;;;15.30;7.83;;;6.40;99.90;;;;;;5047228;28;20175;-80
2021/09/21 03:02:35;;;;;;;16.23;7.30;;;6.50;99.90;;;;;;5048682;28;20201;-80
2021/09/21 03:05:07;;;;;;;43.20;8.63;;;6.60;99.90;;;;;;5049179;28;20205;-80
2021/09/21 03:07:39;;;;;;;22.07;8.10;;;6.70;99.90;;;;;;5049976;28;20420;-80
2021/09/21 03:17:49;;;;;;;23.43;8.90;;;6.80;99.90;;;;;;5046877;28;20451;-80
2021/09/21 03:20:15;;;;;;;18.07;8.70;;;6.90;99.90;;;;;;5046157;28;20425;-80
2021/09/21 03:22:40;;;;;;;30.73;10.27;;;7.00;99.90;;;;;;5045681;28;20632;-80
2021/09/21 03:25:09;;;;;;;20.60;9.77;;;7.00;99.90;;;;;;5046612;28;20178;-80
2021/09/21 03:27:35;;;;;;;24.83;9.87;;;7.10;99.90;;;;;;5045000;28;20261;-80
2021/09/21 03:30:01;;;;;;;34.17;10.63;;;7.00;99.90;;;;;;5046766;28;20417;-80
2021/09/21 03:32:26;;;;;;;13.70;9.80;;;6.90;99.90;;;;;;5042597;28;20197;-80
2021/09/21 03:34:52;;;;;;;19.23;9.37;;;6.90;99.90;;;;;;5041435;28;20640;-79
2021/09/21 03:37:18;;;;;;;29.10;9.97;;;7.00;99.90;;;;;;5043674;28;20240;-80
2021/09/21 03:39:43;;;;;;;35.77;9.90;;;7.00;99.90;;;;;;5049672;28;20197;-79
2021/09/21 03:42:10;;;;;;;14.23;9.80;;;7.00;99.90;;;;;;5057725;28;20267;-79
2021/09/21 03:44:36;;;;;;;34.60;10.07;;;7.00;99.90;;;;;;5056772;28;20162;-79
2021/09/21 03:47:02;;;;;;;13.37;9.57;;;6.90;99.90;;;;;;5052317;28;20487;-80
2021/09/21 03:49:28;;;;;;;24.97;9.90;;;6.90;99.90;;;;;;5040410;28;20417;-80
2021/09/21 03:51:54;;;;;;;40.83;9.97;;;6.90;99.90;;;;;;5041557;28;20470;-80
2021/09/21 03:54:20;;;;;;;15.57;9.20;;;6.90;99.90;;;;;;5040421;28;20190;-80
2021/09/21 03:56:46;;;;;;;14.23;9.13;;;6.90;99.90;;;;;;5041761;28;20429;-80
2021/09/21 03:59:12;;;;;;;11.30;8.63;;;6.90;99.90;;;;;;5039909;28;20413;-80
2021/09/21 04:01:37;;;;;;;18.80;8.90;;;6.90;99.90;;;;;;5039445;28;20539;-79
2021/09/21 04:04:03;;;;;;;12.17;8.30;;;6.90;99.90;;;;;;5038741;28;20203;-80
2021/09/21 04:06:29;;;;;;;8.83;7.13;;;6.90;99.90;;;;;;5036467;28;20198;-80
2021/09/21 04:08:55;;;;;;;7.10;6.40;;;6.80;99.90;;;;;;5035784;28;20183;-80
2021/09/21 04:11:22;;;;;;;6.43;5.47;;;6.80;99.90;;;;;;5036385;28;20171;-80
2021/09/21 04:13:48;;;;;;;7.83;7.03;;;6.70;99.90;;;;;;5036135;28;20174;-80
2021/09/21 04:16:14;;;;;;;7.17;6.47;;;6.70;99.90;;;;;;5040385;28;20260;-79
2021/09/21 04:18:40;;;;;;;7.57;6.43;;;6.60;99.90;;;;;;5044867;28;20174;-80
2021/09/21 04:21:06;;;;;;;7.90;6.30;;;6.60;99.90;;;;;;5044852;28;20197;-80
2021/09/21 04:23:31;;;;;;;7.40;6.63;;;6.60;99.90;;;;;;5044413;28;20175;-80
2021/09/21 04:25:58;;;;;;;7.63;6.47;;;6.60;99.90;;;;;;5042862;28;20204;-80
2021/09/21 04:28:24;;;;;;;7.83;6.27;;;6.60;99.90;;;;;;5042206;28;20213;-80
2021/09/21 04:30:51;;;;;;;8.93;6.47;;;6.60;99.90;;;;;;5042793;28;20573;-79
2021/09/21 04:33:17;;;;;;;8.57;6.53;;;6.50;99.90;;;;;;5034861;28;20233;-80
2021/09/21 04:35:43;;;;;;;7.23;5.97;;;6.60;99.90;;;;;;5040279;28;20171;-80
2021/09/21 04:38:10;;;;;;;8.63;6.40;;;6.60;99.90;;;;;;5040459;28;20944;-80
2021/09/21 04:40:36;;;;;;;8.37;6.43;;;6.60;99.90;;;;;;5043903;28;20175;-80
2021/09/21 04:43:02;;;;;;;7.73;6.23;;;6.60;99.90;;;;;;5042473;28;20248;-80
2021/09/21 04:45:28;;;;;;;7.23;5.80;;;6.60;99.90;;;;;;5044151;28;20445;-80
2021/09/21 04:47:53;;;;;;;7.00;6.17;;;6.60;99.90;;;;;;5042499;28;20230;-80
2021/09/21 04:50:19;;;;;;;7.87;6.57;;;6.60;99.90;;;;;;5044799;28;20185;-80
2021/09/21 04:52:44;;;;;;;7.57;6.27;;;6.50;99.90;;;;;;5044485;28;20202;-80
2021/09/21 04:55:10;;;;;;;7.27;6.33;;;6.60;99.90;;;;;;5043693;28;20166;-80
2021/09/21 04:57:36;;;;;;;8.40;6.33;;;6.60;99.90;;;;;;5042821;28;20202;-80
2021/09/21 05:00:04;;;;;;;9.30;6.20;;;6.60;99.90;;;;;;5045644;28;20171;-80
2021/09/21 05:02:29;;;;;;;11.83;7.00;;;6.60;99.90;;;;;;5044326;28;20178;-80
2021/09/21 05:04:55;;;;;;;8.63;6.37;;;6.70;99.90;;;;;;5044323;28;20988;-79
2021/09/21 05:07:21;;;;;;;11.70;7.37;;;6.70;99.90;;;;;;5045764;28;20225;-80
2021/09/21 05:09:46;;;;;;;7.10;6.20;;;6.70;99.90;;;;;;5045046;28;20193;-80
2021/09/21 05:12:12;;;;;;;9.87;6.83;;;6.80;99.90;;;;;;5045888;28;20197;-80
2021/09/21 05:14:37;;;;;;;8.90;6.53;;;6.80;99.90;;;;;;5045506;28;20189;-81
2021/09/21 05:17:03;;;;;;;8.27;6.40;;;6.80;99.90;;;;;;5047200;28;20194;-81
2021/09/21 05:19:29;;;;;;;8.97;7.17;;;6.90;99.90;;;;;;5042843;28;20170;-80
2021/09/21 05:21:55;;;;;;;12.93;7.10;;;6.80;99.90;;;;;;5042633;28;20679;-80
2021/09/21 05:24:20;;;;;;;9.97;7.00;;;6.90;99.90;;;;;;5041598;28;20190;-80
2021/09/21 05:26:46;;;;;;;9.33;6.87;;;6.90;99.90;;;;;;5040839;28;20782;-80
2021/09/21 05:29:12;;;;;;;8.33;6.80;;;6.90;99.90;;;;;;5040045;28;20545;-80
2021/09/21 05:31:38;;;;;;;8.03;6.67;;;6.90;99.90;;;;;;5039026;28;20205;-80
2021/09/21 05:34:03;;;;;;;8.07;6.87;;;6.90;99.90;;;;;;5043545;28;20245;-81
2021/09/21 05:36:29;;;;;;;11.03;6.47;;;7.00;99.90;;;;;;5040703;28;20251;-80
2021/09/21 05:38:55;;;;;;;8.60;6.67;;;7.00;99.90;;;;;;5044226;28;20162;-80
2021/09/21 05:41:21;;;;;;;9.83;6.87;;;7.00;99.90;;;;;;5043305;28;20628;-80
2021/09/21 05:43:46;;;;;;;7.33;6.23;;;7.00;99.90;;;;;;5040238;28;20265;-80
2021/09/21 05:46:12;;;;;;;10.07;7.50;;;7.00;99.90;;;;;;5044013;28;20230;-80
2021/09/21 05:48:38;;;;;;;8.03;7.13;;;7.10;99.90;;;;;;5044557;28;20181;-80
2021/09/21 05:51:03;;;;;;;8.13;6.30;;;7.10;99.90;;;;;;5044492;28;20170;-79
2021/09/21 05:53:29;;;;;;;9.10;7.30;;;7.20;99.90;;;;;;5043971;28;20265;-79
2021/09/21 05:55:55;;;;;;;9.57;7.33;;;7.30;99.90;;;;;;5042844;28;20186;-79
2021/09/21 05:58:20;;;;;;;9.53;7.40;;;7.30;99.90;;;;;;5042681;28;20174;-80
2021/09/21 06:00:46;;;;;;;10.50;7.77;;;7.40;99.90;;;;;;5040778;28;20628;-79
2021/09/21 06:03:12;;;;;;;12.67;7.93;;;7.40;99.90;;;;;;5044131;28;20174;-79
2021/09/21 06:05:37;;;;;;;7.77;6.80;;;7.50;99.90;;;;;;5040955;28;20640;-80
2021/09/21 06:08:03;;;;;;;9.63;7.37;;;7.50;99.90;;;;;;5042313;28;20224;-80
2021/09/21 06:10:29;;;;;;;9.50;6.93;;;7.60;99.90;;;;;;5047515;28;20186;-81
2021/09/21 06:12:55;;;;;;;11.47;7.03;;;7.60;99.90;;;;;;5045287;28;20203;-80
2021/09/21 06:15:21;;;;;;;9.13;6.73;;;7.60;99.90;;;;;;5045922;28;20179;-79
2021/09/21 06:17:48;;;;;;;8.63;6.77;;;7.60;99.90;;;;;;5047122;28;20225;-79
2021/09/21 06:20:15;;;;;;;9.60;6.87;;;7.60;99.90;;;;;;5045906;28;20179;-79
2021/09/21 06:22:43;;;;;;;8.53;6.13;;;7.60;99.90;;;;;;5047744;28;20178;-80
2021/09/21 06:25:09;;;;;;;8.20;6.83;;;7.60;99.90;;;;;;5046018;28;20187;-80
2021/09/21 06:27:35;;;;;;;11.10;7.60;;;7.60;99.90;;;;;;5047529;28;20233;-80
2021/09/21 06:30:06;;;;;;;9.03;6.33;;;7.70;99.90;;;;;;5046220;28;20185;-79
2021/09/21 06:32:32;;;;;;;9.20;6.93;;;7.80;99.90;;;;;;5046997;28;20460;-80
2021/09/21 06:34:58;;;;;;;8.60;7.23;;;7.80;99.90;;;;;;5047696;28;20174;-79
2021/09/21 06:37:23;;;;;;;11.07;7.17;;;7.80;99.90;;;;;;5047540;28;20602;-79
2021/09/21 06:39:49;;;;;;;10.87;7.67;;;7.80;99.90;;;;;;5047824;28;20178;-80
2021/09/21 06:42:15;;;;;;;10.43;7.20;;;7.90;99.90;;;;;;5046573;28;20650;-80
2021/09/21 06:44:40;;;;;;;9.77;7.27;;;8.00;99.90;;;;;;5047393;28;20202;-79
2021/09/21 06:47:06;;;;;;;9.50;7.13;;;8.00;99.90;;;;;;5045320;28;20216;-80
2021/09/21 06:49:32;;;;;;;9.63;7.33;;;8.10;99.90;;;;;;5046994;28;20615;-80
2021/09/21 06:51:58;;;;;;;10.00;7.43;;;8.10;99.90;;;;;;5048152;28;20194;-80
2021/09/21 06:54:24;;;;;;;11.57;7.93;;;8.10;99.90;;;;;;5046032;28;20178;-80
2021/09/21 06:56:50;;;;;;;9.73;7.20;;;8.10;99.90;;;;;;5047695;28;20209;-80
2021/09/21 06:59:16;;;;;;;9.47;7.30;;;8.20;99.90;;;;;;5046696;28;20181;-80
2021/09/21 07:01:42;;;;;;;15.30;7.60;;;8.20;99.90;;;;;;5048313;28;20232;-79
2021/09/21 07:04:07;;;;;;;11.53;8.13;;;8.20;99.90;;;;;;5046787;28;20183;-79
2021/09/21 07:06:33;;;;;;;21.37;11.00;;;8.20;99.90;;;;;;5046520;28;20221;-80
2021/09/21 07:09:00;;;;;;;30.97;22.20;;;8.30;99.90;;;;;;5046428;28;20185;-79
2021/09/21 07:11:26;;;;;;;15.80;10.00;;;8.40;99.90;;;;;;5041094;28;20202;-79
2021/09/21 07:13:52;;;;;;;14.33;9.43;;;8.50;99.90;;;;;;5040331;28;20185;-80
2021/09/21 07:16:18;;;;;;;15.77;12.60;;;8.60;99.90;;;;;;5041765;28;20659;-79
2021/09/21 07:18:43;;;;;;;11.57;8.47;;;8.70;99.90;;;;;;5039153;28;20175;-79
2021/09/21 07:21:10;;;;;;;10.97;8.23;;;8.80;99.90;;;;;;5040201;28;20250;-79
2021/09/21 07:23:36;;;;;;;9.87;8.27;;;8.90;99.90;;;;;;5037638;28;20187;-80
2021/09/21 07:26:02;;;;;;;11.40;8.67;;;9.00;99.90;;;;;;5037069;28;20227;-79
2021/09/21 07:28:28;;;;;;;9.53;7.70;;;9.10;99.90;;;;;;5035632;28;20193;-79
2021/09/21 07:30:53;;;;;;;8.80;7.47;;;9.20;99.90;;;;;;5048636;28;20174;-80
2021/09/21 07:33:19;;;;;;;11.67;8.57;;;9.20;99.90;;;;;;5046769;28;20689;-80
2021/09/21 07:35:45;;;;;;;10.70;7.90;;;9.20;99.90;;;;;;5047842;28;20190;-80
2021/09/21 07:38:11;;;;;;;12.07;7.40;;;9.30;99.90;;;;;;5050107;28;20174;-80
2021/09/21 07:40:37;;;;;;;9.17;7.30;;;9.30;99.90;;;;;;5056638;28;20186;-79
2021/09/21 07:43:05;;;;;;;12.97;8.83;;;9.50;99.90;;;;;;5055968;28;20209;-79
2021/09/21 07:45:34;;;;;;;11.77;7.80;;;9.60;99.90;;;;;;5057049;28;20178;-79
2021/09/21 07:48:01;;;;;;;11.43;7.80;;;9.70;99.90;;;;;;5057160;28;20184;-79
2021/09/21 07:50:27;;;;;;;11.73;7.63;;;9.70;99.90;;;;;;5057289;28;20180;-79
2021/09/21 07:52:53;;;;;;;8.30;6.80;;;9.70;99.90;;;;;;5044962;28;20220;-80
2021/09/21 07:55:19;;;;;;;10.00;7.10;;;9.70;99.90;;;;;;5044076;28;20309;-80
2021/09/21 07:57:45;;;;;;;9.60;7.50;;;9.70;99.90;;;;;;5043129;28;20218;-79
2021/09/21 08:00:14;;;;;;;9.43;6.83;;;9.80;99.90;;;;;;5044464;28;20201;-80
2021/09/21 08:02:40;;;;;;;9.83;7.43;;;9.90;99.90;;;;;;5044030;28;20209;-79
2021/09/21 08:05:06;;;;;;;10.87;8.03;;;10.10;99.90;;;;;;5043712;28;20224;-79
2021/09/21 08:07:33;;;;;;;11.90;8.50;;;10.20;99.90;;;;;;5042353;28;20198;-79
2021/09/21 08:10:00;;;;;;;13.83;9.80;;;10.30;99.90;;;;;;5044330;28;20201;-80
2021/09/21 08:12:27;;;;;;;22.73;15.80;;;10.50;99.90;;;;;;5042910;28;20256;-79
2021/09/21 08:14:53;;;;;;;13.83;8.97;;;10.60;99.90;;;;;;5044006;28;20174;-80
2021/09/21 08:17:22;;;;;;;12.50;8.90;;;10.70;99.90;;;;;;5043516;28;20208;-79
2021/09/21 08:19:49;;;;;;;14.63;10.90;;;10.80;99.90;;;;;;5045145;28;20174;-79
2021/09/21 08:22:15;;;;;;;15.63;9.73;;;10.80;99.90;;;;;;5042991;28;20642;-80
2021/09/21 08:24:41;;;;;;;12.83;9.70;;;10.90;99.90;;;;;;5041804;28;20195;-80
2021/09/21 08:27:07;;;;;;;14.67;9.83;;;10.90;99.90;;;;;;5044330;28;20214;-79
2021/09/21 08:29:32;;;;;;;13.73;9.87;;;11.00;99.90;;;;;;5045748;28;20206;-79
2021/09/21 08:31:58;;;;;;;13.43;10.83;;;11.00;99.90;;;;;;5045110;28;20218;-79
2021/09/21 08:34:24;;;;;;;12.13;8.63;;;11.10;99.90;;;;;;5044444;28;20181;-79
2021/09/21 08:36:51;;;;;;;9.93;8.10;;;11.10;99.90;;;;;;5045434;28;20196;-80
2021/09/21 08:39:17;;;;;;;14.50;9.57;;;11.10;99.90;;;;;;5044177;28;20179;-79
2021/09/21 08:41:43;;;;;;;11.57;8.10;;;11.10;99.90;;;;;;5043380;28;20231;-79
2021/09/21 08:44:10;;;;;;;12.63;9.07;;;11.20;99.90;;;;;;5044357;28;20233;-80
2021/09/21 08:46:36;;;;;;;12.57;9.30;;;11.30;99.90;;;;;;5042988;28;20198;-80
2021/09/21 08:49:03;;;;;;;13.13;8.63;;;11.40;99.90;;;;;;5042407;28;20212;-79
2021/09/21 08:51:28;;;;;;;13.97;9.23;;;11.60;99.90;;;;;;5043507;28;20200;-80
2021/09/21 08:53:55;;;;;;;17.83;10.63;;;11.70;99.90;;;;;;5043508;28;20236;-79
2021/09/21 08:56:21;;;;;;;14.17;10.67;;;11.90;99.90;;;;;;5041425;28;20198;-80
2021/09/21 08:59:00;;;;;;;15.93;9.00;;;12.00;99.90;;;;;;5045078;28;20815;-79
2021/09/21 09:01:47;;;;;;;12.10;8.03;;;12.10;99.90;;;;;;5044604;28;20198;-80
2021/09/21 09:04:14;;;;;;;17.93;8.50;;;12.20;99.90;;;;;;5045745;28;20211;-80
2021/09/21 09:06:46;;;;;;;14.00;8.47;;;12.40;99.90;;;;;;5043422;28;20197;-80
2021/09/21 09:09:17;;;;;;;14.00;8.53;;;12.70;99.90;;;;;;5044217;28;20218;-80
2021/09/21 09:11:47;;;;;;;13.23;8.57;;;12.90;99.90;;;;;;5043993;28;20184;-79
2021/09/21 09:14:28;;;;;;;12.10;8.57;;;13.20;99.90;;;;;;5042773;28;20171;-80
2021/09/21 09:17:14;;;;;;;11.20;7.67;;;13.30;99.90;;;;;;5042901;28;20667;-80
2021/09/21 09:19:50;;;;;;;12.90;9.33;;;13.50;99.90;;;;;;5044580;28;20191;-80
2021/09/21 09:22:20;;;;;;;11.87;7.80;;;13.60;99.90;;;;;;5044505;28;20178;-79
2021/09/21 09:24:48;;;;;;;12.20;8.33;;;13.70;99.90;;;;;;5042949;28;20205;-80
2021/09/21 09:27:14;;;;;;;14.37;9.20;;;13.90;99.90;;;;;;5042440;28;20217;-80
2021/09/21 09:29:54;;;;;;;12.87;8.27;;;14.10;99.90;;;;;;5042560;28;20543;-80
2021/09/21 09:32:20;;;;;;;9.73;8.23;;;14.30;99.90;;;;;;5043232;28;20198;-80
2021/09/21 09:34:46;;;;;;;13.50;8.47;;;14.30;99.90;;;;;;5044303;28;20181;-80
2021/09/21 09:37:11;;;;;;;10.57;7.80;;;14.30;99.90;;;;;;5042818;28;20196;-80
2021/09/21 09:39:38;;;;;;;10.23;8.30;;;14.40;99.90;;;;;;5045231;28;20200;-80
2021/09/21 09:42:04;;;;;;;12.00;8.57;;;14.20;99.90;;;;;;5043580;28;20537;-80
2021/09/21 09:44:32;;;;;;;10.03;8.23;;;14.00;99.90;;;;;;5042972;28;20237;-80
2021/09/21 09:47:00;;;;;;;9.23;8.03;;;14.00;99.90;;;;;;5045258;28;20205;-80
2021/09/21 09:49:31;;;;;;;12.13;8.73;;;14.00;99.90;;;;;;5044124;28;20182;-80
2021/09/21 09:52:07;;;;;;;12.73;8.50;;;14.00;99.90;;;;;;5045055;28;20202;-80
2021/09/21 09:54:34;;;;;;;10.80;8.83;;;14.00;99.90;;;;;;5042679;28;20174;-80
2021/09/21 09:57:01;;;;;;;13.43;9.07;;;13.90;99.90;;;;;;5044627;28;20196;-80
2021/09/21 09:59:28;;;;;;;11.73;8.67;;;14.00;99.90;;;;;;5044766;28;20271;-80
2021/09/21 10:01:53;;;;;;;10.87;8.67;;;14.10;99.90;;;;;;5049389;28;20182;-80
2021/09/21 10:04:19;;;;;;;12.40;8.97;;;14.30;99.90;;;;;;5046826;28;20185;-79
2021/09/21 10:06:45;;;;;;;11.67;8.23;;;14.40;99.90;;;;;;5047192;28;20201;-79
2021/09/21 10:09:11;;;;;;;12.33;8.30;;;14.70;99.90;;;;;;5044585;28;20209;-79
2021/09/21 10:11:38;;;;;;;11.80;8.90;;;14.90;99.90;;;;;;5039730;28;20182;-80
2021/09/21 10:14:06;;;;;;;11.93;9.03;;;15.20;99.90;;;;;;5038944;28;20174;-80
2021/09/21 10:16:32;;;;;;;12.77;9.67;;;15.30;99.90;;;;;;5038381;28;20289;-79
2021/09/21 10:19:03;;;;;;;13.10;9.53;;;15.30;99.90;;;;;;5038380;28;20213;-79
2021/09/21 10:21:34;;;;;;;12.20;9.23;;;15.40;99.90;;;;;;5038535;28;20595;-80
2021/09/21 10:24:04;;;;;;;11.47;8.97;;;15.80;99.90;;;;;;5026431;28;20197;-79
2021/09/21 10:26:31;;;;;;;11.53;8.57;;;16.40;99.90;;;;;;5030535;28;20660;-79
2021/09/21 10:28:58;;;;;;;14.77;10.13;;;16.90;99.90;;;;;;5029561;28;20595;-80
2021/09/21 10:31:25;;;;;;;11.30;10.10;;;17.60;99.90;;;;;;5017718;28;20172;-79
2021/09/21 10:33:50;;;;;;;15.40;13.90;;;18.40;99.90;;;;;;5029715;28;20195;-80
2021/09/21 10:36:19;;;;;;;10.43;8.97;;;18.80;99.90;;;;;;5034327;28;20558;-79
2021/09/21 10:38:53;;;;;;;10.73;8.93;;;19.40;99.90;;;;;;5032967;28;20178;-79
2021/09/21 10:41:19;;;;;;;10.73;8.93;;;19.60;99.90;;;;;;5037006;28;20182;-80
2021/09/21 10:43:45;;;;;;;22.97;20.63;;;19.20;99.90;;;;;;5043077;28;20539;-80
2021/09/21 10:46:14;;;;;;;10.57;8.50;;;19.20;99.90;;;;;;5041344;28;20240;-79
2021/09/21 10:48:41;;;;;;;10.90;9.33;;;18.90;99.90;;;;;;5042576;28;20182;-80
2021/09/21 10:51:08;;;;;;;11.67;9.10;;;18.40;99.90;;;;;;5041722;28;20521;-79
2021/09/21 10:53:34;;;;;;;28.77;26.27;;;18.10;99.90;;;;;;5042716;28;20603;-80
2021/09/21 10:56:07;;;;;;;10.90;9.13;;;18.10;99.90;;;;;;5044399;28;20175;-80
2021/09/21 10:58:33;;;;;;;11.93;9.60;;;18.20;99.90;;;;;;5044099;28;20643;-80
2021/09/21 11:00:59;;;;;;;9.93;8.67;;;18.20;99.90;;;;;;5044523;28;20268;-80
2021/09/21 11:03:27;;;;;;;10.87;9.30;;;18.30;99.90;;;;;;5044167;28;20205;-80
2021/09/21 11:05:57;;;;;;;12.37;9.27;;;18.40;99.90;;;;;;5045028;28;20174;-80
2021/09/21 11:08:34;;;;;;;11.37;9.67;;;18.20;99.90;;;;;;5046711;28;20233;-80
2021/09/21 11:11:02;;;;;;;9.17;8.27;;;18.00;99.90;;;;;;5045561;28;20169;-79
2021/09/21 11:13:34;;;;;;;10.47;8.90;;;17.80;99.90;;;;;;5043399;28;20207;-80
2021/09/21 11:16:02;;;;;;;12.63;9.67;;;17.70;99.90;;;;;;5042751;28;20181;-80
2021/09/21 11:18:28;;;;;;;11.13;8.97;;;17.70;99.90;;;;;;5043332;28;20186;-80
2021/09/21 11:21:00;;;;;;;12.73;10.13;;;17.60;99.90;;;;;;5043799;28;20179;-80
2021/09/21 11:23:31;;;;;;;11.53;9.77;;;17.50;99.90;;;;;;5044708;28;20566;-80
2021/09/21 11:26:01;;;;;;;13.47;10.17;;;17.50;99.90;;;;;;5043965;28;20165;-80
2021/09/21 11:28:33;;;;;;;10.37;8.87;;;17.50;99.90;;;;;;5042574;28;20555;-80
2021/09/21 11:31:01;;;;;;;14.07;9.90;;;17.40;99.90;;;;;;5043138;28;20566;-79
2021/09/21 11:33:32;;;;;;;12.50;9.33;;;17.50;99.90;;;;;;5043216;28;20186;-79
2021/09/21 11:36:05;;;;;;;10.63;9.53;;;17.70;99.90;;;;;;5039523;28;20174;-80
2021/09/21 11:38:34;;;;;;;11.73;9.80;;;17.90;99.90;;;;;;5042108;28;20173;-80
2021/09/21 11:41:01;;;;;;;15.27;9.40;;;18.60;99.90;;;;;;5043575;28;20640;-80
2021/09/21 11:43:29;;;;;;;11.53;9.70;;;19.60;99.90;;;;;;5043126;28;20178;-80
2021/09/21 11:45:54;;;;;;;14.40;9.40;;;20.00;99.90;;;;;;5042494;28;20178;-80
2021/09/21 11:48:21;;;;;;;10.73;9.07;;;20.20;99.90;;;;;;5042780;28;20186;-80
2021/09/21 11:50:47;;;;;;;16.27;9.50;;;20.20;99.90;;;;;;5043730;28;20177;-80
2021/09/21 11:53:18;;;;;;;9.83;8.83;;;20.00;99.90;;;;;;5043349;28;20252;-80
2021/09/21 11:55:46;;;;;;;11.00;8.70;;;20.00;99.90;;;;;;5044210;28;20162;-80
2021/09/21 11:58:14;;;;;;;11.77;8.70;;;20.00;99.90;;;;;;5046408;28;20179;-80
2021/09/21 12:00:46;;;;;;;10.83;8.67;;;19.80;99.90;;;;;;5043980;28;20576;-80
2021/09/21 12:03:15;;;;;;;9.63;8.60;;;19.30;99.90;;;;;;5049312;28;20316;-80
2021/09/21 12:05:42;;;;;;;10.53;8.53;;;19.10;99.90;;;;;;5042763;28;20178;-80
2021/09/21 12:08:18;;;;;;;9.13;8.23;;;19.60;99.90;;;;;;5042091;28;20549;-80
2021/09/21 12:10:49;;;;;;;11.33;8.50;;;20.20;99.90;;;;;;5042639;28;20175;-80
2021/09/21 12:13:18;;;;;;;9.67;8.67;;;20.30;99.90;;;;;;5042681;28;20191;-79
2021/09/21 12:15:48;;;;;;;10.67;8.40;;;20.20;99.90;;;;;;5042517;28;20182;-80
2021/09/21 12:18:14;;;;;;;9.73;7.80;;;20.70;99.90;;;;;;5040819;28;20202;-80
2021/09/21 12:20:42;;;;;;;8.93;7.50;;;21.60;99.90;;;;;;5042068;28;20242;-80
2021/09/21 12:23:10;;;;;;;9.87;8.30;;;22.20;99.90;;;;;;5042497;28;20190;-80
2021/09/21 12:25:40;;;;;;;11.23;7.97;;;22.70;99.90;;;;;;5041726;28;20182;-80
2021/09/21 12:28:07;;;;;;;12.27;8.20;;;23.60;99.90;;;;;;5041356;28;20211;-81
2021/09/21 12:30:39;;;;;;;9.50;7.43;;;23.70;99.90;;;;;;5039072;28;20196;-79
2021/09/21 12:33:10;;;;;;;9.10;7.77;;;22.50;99.90;;;;;;5036955;28;20647;-81
2021/09/21 12:35:44;;;;;;;8.33;7.23;;;20.80;99.90;;;;;;5040973;28;20610;-79
2021/09/21 12:38:19;;;;;;;11.17;8.03;;;21.20;99.90;;;;;;5040986;28;20166;-80
2021/09/21 12:40:52;;;;;;;9.07;8.17;;;22.50;99.90;;;;;;5040983;28;20200;-80
2021/09/21 12:43:20;;;;;;;10.27;7.93;;;23.80;99.90;;;;;;5039002;28;20190;-78
2021/09/21 12:45:48;;;;;;;8.20;7.27;;;25.60;99.90;;;;;;5037587;28;20197;-78
2021/09/21 12:48:14;;;;;;;9.60;8.47;;;25.60;99.90;;;;;;5040515;28;20198;-80
2021/09/21 12:50:41;;;;;;;8.83;8.03;;;25.80;99.20;;;;;;5039904;28;20635;-78
2021/09/21 12:53:16;;;;;;;8.67;7.80;;;25.90;97.90;;;;;;5042281;28;20193;-78
2021/09/21 12:55:43;;;;;;;7.77;6.97;;;26.10;97.10;;;;;;5039131;28;20176;-78
2021/09/21 12:58:09;;;;;;;7.40;6.70;;;25.90;94.10;;;;;;5040905;28;20173;-78